createdAt,value
2017-09-05T00:01:36.170Z,18.80
2017-09-05T00:04:03.058Z,18.89
2017-09-05T00:06:29.886Z,18.47
2017-09-05T00:08:56.767Z,18.47
2017-09-05T00:14:38.091Z,18.53
2017-09-05T00:17:13.729Z,18.81
2017-09-05T00:19:44.718Z,18.26
2017-09-05T00:22:13.305Z,18.35
2017-09-05T00:24:40.261Z,18.84
2017-09-05T00:27:07.195Z,19.01
2017-09-05T00:29:34.096Z,18.91
2017-09-05T00:32:00.965Z,18.61
2017-09-05T00:34:27.854Z,18.62
2017-09-05T00:36:54.692Z,18.58
2017-09-05T00:39:21.544Z,18.10
2017-09-05T00:41:48.474Z,18.66
2017-09-05T00:44:15.374Z,18.82
2017-09-05T00:46:42.251Z,18.72
2017-09-05T00:49:09.116Z,18.39
2017-09-05T00:51:35.984Z,18.25
2017-09-05T00:54:02.857Z,18.35
2017-09-05T00:56:29.682Z,17.90
2017-09-05T00:58:56.536Z,18.52
2017-09-05T01:01:23.469Z,18.19
2017-09-05T01:03:50.304Z,18.57
2017-09-05T01:06:17.249Z,18.11
2017-09-05T01:08:44.130Z,18.38
2017-09-05T01:11:11.022Z,17.93
2017-09-05T01:13:38.021Z,17.75
2017-09-05T01:16:04.872Z,18.35
2017-09-05T01:18:31.759Z,18.55
2017-09-05T01:20:58.660Z,18.59
2017-09-05T01:23:25.589Z,18.74
2017-09-05T01:25:52.437Z,18.48
2017-09-05T01:28:19.268Z,18.41
2017-09-05T01:30:46.176Z,18.19
2017-09-05T01:33:13.052Z,18.33
2017-09-05T01:35:39.904Z,18.76
2017-09-05T01:38:06.760Z,18.76
2017-09-05T01:40:33.610Z,18.75
2017-09-05T01:43:00.442Z,18.63
2017-09-05T01:45:27.293Z,18.35
2017-09-05T01:47:54.146Z,18.51
2017-09-05T01:50:20.998Z,18.50
2017-09-05T01:52:47.851Z,18.45
2017-09-05T01:55:14.692Z,18.77
2017-09-05T01:57:41.513Z,18.25
2017-09-05T02:00:08.336Z,18.06
2017-09-05T02:02:35.188Z,18.47
2017-09-05T02:05:02.028Z,18.37
2017-09-05T02:07:28.927Z,17.96
2017-09-05T02:09:55.795Z,17.87
2017-09-05T02:12:22.694Z,18.01
2017-09-05T02:14:49.527Z,18.06
2017-09-05T02:17:16.373Z,18.51
2017-09-05T02:19:43.238Z,18.43
2017-09-05T02:22:10.087Z,18.32
2017-09-05T02:24:36.911Z,18.20
2017-09-05T02:27:03.724Z,18.20
2017-09-05T02:29:30.584Z,18.16
2017-09-05T02:31:57.409Z,18.11
2017-09-05T02:34:24.264Z,18.00
2017-09-05T02:36:51.100Z,18.33
2017-09-05T02:39:17.987Z,18.10
2017-09-05T02:41:44.838Z,18.58
2017-09-05T02:44:11.643Z,18.54
2017-09-05T02:46:38.460Z,18.02
2017-09-05T02:49:05.309Z,18.02
2017-09-05T02:51:32.157Z,17.72
2017-09-05T02:53:59.039Z,17.61
2017-09-05T02:56:25.884Z,17.59
2017-09-05T02:58:52.726Z,17.84
2017-09-05T03:01:19.573Z,17.99
2017-09-05T03:03:46.435Z,18.43
2017-09-05T03:06:13.263Z,18.18
2017-09-05T03:08:40.101Z,18.48
2017-09-05T03:11:06.961Z,18.38
2017-09-05T03:13:33.794Z,18.32
2017-09-05T03:16:00.643Z,18.24
2017-09-05T03:18:27.533Z,17.82
2017-09-05T03:20:54.364Z,18.07
2017-09-05T03:23:21.202Z,18.32
2017-09-05T03:25:48.047Z,18.39
2017-09-05T03:28:14.867Z,18.61
2017-09-05T03:30:41.777Z,18.56
2017-09-05T03:33:08.595Z,18.60
2017-09-05T03:35:35.434Z,18.49
2017-09-05T03:38:02.346Z,18.53
2017-09-05T03:40:29.167Z,18.57
2017-09-05T03:42:56.019Z,18.28
2017-09-05T03:45:22.855Z,18.44
2017-09-05T03:47:49.681Z,18.05
2017-09-05T03:50:16.506Z,17.62
2017-09-05T03:52:43.357Z,17.50
2017-09-05T03:55:10.199Z,17.87
2017-09-05T03:57:37.045Z,18.28
2017-09-05T04:00:03.895Z,17.97
2017-09-05T04:02:30.729Z,17.74
2017-09-05T04:04:57.575Z,17.56
2017-09-05T04:07:24.430Z,17.82
2017-09-05T04:09:51.265Z,17.51
2017-09-05T04:12:18.133Z,17.99
2017-09-05T04:14:44.973Z,18.01
2017-09-05T04:17:11.788Z,17.53
2017-09-05T04:19:38.646Z,18.08
2017-09-05T04:22:05.445Z,18.23
2017-09-05T04:24:32.306Z,18.18
2017-09-05T04:26:59.132Z,17.73
2017-09-05T04:29:25.971Z,18.25
2017-09-05T04:31:52.840Z,17.77
2017-09-05T04:34:19.723Z,18.05
2017-09-05T04:36:46.546Z,17.94
2017-09-05T04:39:13.449Z,18.08
2017-09-05T04:41:40.307Z,18.28
2017-09-05T04:44:07.134Z,18.03
2017-09-05T04:46:33.972Z,17.86
2017-09-05T04:49:00.798Z,17.69
2017-09-05T04:51:27.697Z,18.19
2017-09-05T04:53:54.520Z,17.69
2017-09-05T04:56:21.377Z,17.56
2017-09-05T04:58:48.202Z,18.01
2017-09-05T05:01:15.057Z,18.26
2017-09-05T05:03:41.892Z,18.22
2017-09-05T05:06:08.703Z,18.28
2017-09-05T05:08:35.499Z,18.19
2017-09-05T05:11:02.364Z,18.08
2017-09-05T05:13:29.195Z,18.22
2017-09-05T05:15:56.032Z,17.85
2017-09-05T05:18:22.848Z,18.05
2017-09-05T05:20:49.680Z,18.05
2017-09-05T05:23:16.530Z,18.33
2017-09-05T05:25:43.332Z,18.43
2017-09-05T05:28:10.178Z,18.38
2017-09-05T05:30:37.009Z,18.51
2017-09-05T05:33:03.890Z,18.42
2017-09-05T05:35:30.782Z,18.44
2017-09-05T05:37:57.866Z,18.43
2017-09-05T05:40:24.708Z,18.22
2017-09-05T05:42:51.591Z,18.45
2017-09-05T05:45:18.441Z,18.51
2017-09-05T05:47:45.304Z,18.35
2017-09-05T05:50:12.119Z,18.20
2017-09-05T05:52:38.951Z,18.16
2017-09-05T05:55:05.826Z,17.82
2017-09-05T05:57:32.647Z,18.00
2017-09-05T05:59:59.460Z,18.14
2017-09-05T06:02:26.306Z,18.27
2017-09-05T06:04:53.128Z,18.44
2017-09-05T06:07:19.947Z,18.66
2017-09-05T06:09:46.834Z,18.47
2017-09-05T06:12:13.665Z,18.62
2017-09-05T06:14:40.506Z,18.60
2017-09-05T06:17:07.346Z,18.71
2017-09-05T06:19:34.207Z,18.56
2017-09-05T06:22:01.040Z,18.77
2017-09-05T06:24:27.898Z,18.41
2017-09-05T06:26:54.707Z,18.33
2017-09-05T06:29:21.617Z,18.45
2017-09-05T06:31:48.445Z,18.75
2017-09-05T06:34:15.285Z,18.73
2017-09-05T06:36:42.120Z,18.74
2017-09-05T06:39:09.002Z,18.95
2017-09-05T06:41:35.863Z,18.96
2017-09-05T06:44:02.718Z,19.01
2017-09-05T06:46:29.524Z,18.96
2017-09-05T06:48:56.324Z,18.87
2017-09-05T06:51:23.132Z,18.92
2017-09-05T06:53:49.976Z,19.01
2017-09-05T06:56:16.789Z,19.11
2017-09-05T06:58:43.619Z,19.19
2017-09-05T07:01:10.648Z,19.08
2017-09-05T07:03:37.611Z,19.19
2017-09-05T07:06:04.575Z,19.24
2017-09-05T07:08:31.514Z,19.15
2017-09-05T07:10:58.477Z,19.31
2017-09-05T07:13:25.407Z,19.29
2017-09-05T07:15:52.313Z,19.27
2017-09-05T07:18:19.245Z,19.40
2017-09-05T07:20:46.210Z,19.32
2017-09-05T07:23:14.046Z,19.45
2017-09-05T07:25:40.955Z,19.48
2017-09-05T07:28:07.940Z,19.53
2017-09-05T07:30:34.865Z,19.58
2017-09-05T07:33:01.728Z,19.54
2017-09-05T07:35:28.631Z,19.48
2017-09-05T07:37:55.509Z,19.48
2017-09-05T07:40:22.461Z,19.68
2017-09-05T07:42:49.623Z,19.62
2017-09-05T07:45:20.604Z,19.63
2017-09-05T07:47:47.508Z,19.72
2017-09-05T07:50:16.254Z,19.84
2017-09-05T07:52:43.183Z,19.90
2017-09-05T07:55:10.875Z,19.92
2017-09-05T07:57:38.174Z,19.85
2017-09-05T08:00:05.166Z,19.96
2017-09-05T08:02:31.997Z,20.10
2017-09-05T08:04:58.845Z,20.19
2017-09-05T08:07:25.748Z,20.31
2017-09-05T08:09:52.547Z,20.42
2017-09-05T08:12:19.390Z,20.27
2017-09-05T08:14:46.245Z,20.50
2017-09-05T08:17:13.072Z,20.60
2017-09-05T08:19:39.926Z,20.70
2017-09-05T08:22:06.766Z,20.89
2017-09-05T08:24:33.595Z,20.94
2017-09-05T08:27:00.490Z,20.97
2017-09-05T08:29:27.344Z,21.25
2017-09-05T08:31:54.193Z,21.26
2017-09-05T08:34:21.036Z,21.33
2017-09-05T08:36:47.907Z,21.47
2017-09-05T08:39:14.745Z,21.72
2017-09-05T08:41:41.594Z,21.78
2017-09-05T08:44:08.401Z,21.80
2017-09-05T08:46:35.264Z,21.88
2017-09-05T08:49:02.107Z,21.97
2017-09-05T08:51:28.942Z,22.05
2017-09-05T08:53:55.814Z,22.09
2017-09-05T08:56:22.654Z,21.88
2017-09-05T08:58:49.506Z,22.11
2017-09-05T09:01:16.376Z,22.22
2017-09-05T09:03:43.212Z,22.38
2017-09-05T09:06:10.071Z,22.25
2017-09-05T09:08:36.914Z,22.44
2017-09-05T09:11:03.748Z,22.46
2017-09-05T09:13:30.599Z,22.59
2017-09-05T09:15:57.501Z,22.69
2017-09-05T09:18:24.380Z,22.71
2017-09-05T09:20:51.242Z,22.84
2017-09-05T09:23:18.084Z,23.20
2017-09-05T09:25:44.934Z,23.28
2017-09-05T09:28:11.803Z,23.71
2017-09-05T09:30:38.645Z,23.58
2017-09-05T09:33:05.526Z,23.67
2017-09-05T09:35:32.390Z,23.95
2017-09-05T09:37:59.254Z,23.95
2017-09-05T09:40:26.088Z,24.24
2017-09-05T09:42:52.997Z,24.36
2017-09-05T09:45:19.815Z,23.93
2017-09-05T09:47:46.725Z,23.96
2017-09-05T09:50:13.601Z,24.14
2017-09-05T09:52:40.455Z,24.24
2017-09-05T09:55:07.316Z,24.54
2017-09-05T09:57:34.953Z,24.45
2017-09-05T10:00:01.803Z,24.73
2017-09-05T10:02:28.645Z,24.95
2017-09-05T10:04:55.522Z,25.02
2017-09-05T10:07:22.369Z,24.68
2017-09-05T10:09:49.238Z,24.92
2017-09-05T10:12:16.073Z,25.15
2017-09-05T10:14:42.938Z,25.08
2017-09-05T10:17:09.787Z,25.12
2017-09-05T10:19:36.617Z,25.06
2017-09-05T10:22:03.495Z,24.97
2017-09-05T10:24:30.412Z,24.85
2017-09-05T10:26:57.231Z,25.02
2017-09-05T10:29:24.085Z,25.44
2017-09-05T10:31:51.100Z,25.58
2017-09-05T10:34:17.962Z,25.73
2017-09-05T10:36:44.815Z,25.57
2017-09-05T10:39:11.628Z,25.84
2017-09-05T10:41:38.509Z,26.00
2017-09-05T10:44:05.347Z,25.37
2017-09-05T10:46:32.172Z,25.84
2017-09-05T10:48:59.020Z,25.48
2017-09-05T10:51:25.884Z,25.63
2017-09-05T10:53:52.716Z,25.58
2017-09-05T10:56:19.570Z,25.36
2017-09-05T10:58:46.418Z,26.00
2017-09-05T11:01:13.299Z,25.57
2017-09-05T11:03:40.203Z,25.50
2017-09-05T11:06:07.067Z,25.92
2017-09-05T11:08:33.918Z,25.84
2017-09-05T11:11:00.760Z,26.10
2017-09-05T11:13:27.618Z,25.79
2017-09-05T11:15:54.434Z,26.22
2017-09-05T11:18:21.274Z,25.95
2017-09-05T11:20:48.124Z,26.62
2017-09-05T11:23:14.956Z,26.48
2017-09-05T11:25:41.801Z,26.58
2017-09-05T11:28:08.661Z,26.67
2017-09-05T11:30:35.494Z,26.76
2017-09-05T11:33:02.339Z,26.64
2017-09-05T11:35:29.229Z,26.84
2017-09-05T11:37:56.115Z,27.10
2017-09-05T11:40:22.940Z,27.03
2017-09-05T11:42:49.886Z,27.37
2017-09-05T11:45:16.732Z,27.49
2017-09-05T11:47:43.612Z,27.46
2017-09-05T11:50:10.459Z,27.32
2017-09-05T11:52:37.330Z,27.00
2017-09-05T11:55:04.236Z,27.45
2017-09-05T11:57:31.148Z,27.67
2017-09-05T11:59:57.994Z,27.37
2017-09-05T12:02:24.872Z,27.36
2017-09-05T12:04:51.742Z,27.64
2017-09-05T12:07:18.622Z,27.18
2017-09-05T12:09:45.562Z,26.81
2017-09-05T12:12:12.414Z,27.05
2017-09-05T12:14:39.268Z,26.83
2017-09-05T12:17:06.191Z,26.84
2017-09-05T12:19:33.115Z,26.79
2017-09-05T12:22:00.016Z,26.69
2017-09-05T12:24:26.887Z,26.58
2017-09-05T12:26:53.786Z,26.58
2017-09-05T12:29:20.628Z,26.28
2017-09-05T12:31:47.542Z,26.17
2017-09-05T12:34:14.391Z,26.33
2017-09-05T12:36:41.321Z,26.29
2017-09-05T12:39:08.233Z,26.03
2017-09-05T12:41:35.178Z,25.81
2017-09-05T12:44:02.085Z,25.93
2017-09-05T12:46:28.940Z,25.75
2017-09-05T12:48:55.780Z,25.81
2017-09-05T12:51:22.697Z,25.69
2017-09-05T12:53:49.579Z,25.60
2017-09-05T12:56:16.437Z,25.37
2017-09-05T12:58:43.275Z,25.43
2017-09-05T13:01:10.132Z,25.58
2017-09-05T13:03:37.045Z,25.70
2017-09-05T13:06:03.973Z,25.55
2017-09-05T13:08:30.815Z,25.41
2017-09-05T13:10:57.736Z,25.15
2017-09-05T13:13:24.605Z,25.13
2017-09-05T13:15:51.498Z,25.21
2017-09-05T13:18:18.409Z,25.20
2017-09-05T13:20:45.284Z,25.06
2017-09-05T13:23:12.172Z,25.05
2017-09-05T13:25:39.044Z,25.09
2017-09-05T13:28:06.775Z,25.25
2017-09-05T13:30:33.732Z,24.90
2017-09-05T13:33:00.696Z,25.18
2017-09-05T13:35:27.657Z,25.10
2017-09-05T13:37:54.644Z,25.11
2017-09-05T13:40:21.601Z,25.24
2017-09-05T13:42:48.495Z,25.30
2017-09-05T13:45:15.492Z,25.34
2017-09-05T13:47:42.555Z,25.37
2017-09-05T13:50:09.571Z,25.26
2017-09-05T13:52:36.559Z,25.16
2017-09-05T13:55:03.481Z,25.21
2017-09-05T13:57:30.481Z,25.11
2017-09-05T13:59:57.364Z,24.97
2017-09-05T14:02:24.347Z,25.05
2017-09-05T14:04:51.183Z,25.07
2017-09-05T14:07:18.032Z,24.93
2017-09-05T14:09:44.907Z,24.75
2017-09-05T14:12:12.938Z,24.72
2017-09-05T14:14:50.204Z,24.68
2017-09-05T14:17:20.009Z,24.58
2017-09-05T14:19:46.869Z,24.73
2017-09-05T14:22:13.732Z,24.38
2017-09-05T14:24:40.577Z,24.47
2017-09-05T14:27:07.452Z,24.51
2017-09-05T14:29:34.320Z,24.53
2017-09-05T14:32:01.163Z,24.51
2017-09-05T14:34:28.008Z,24.50
2017-09-05T14:36:54.879Z,24.39
2017-09-05T14:39:21.756Z,24.46
2017-09-05T14:41:48.653Z,24.42
2017-09-05T14:44:15.501Z,24.43
2017-09-05T14:46:42.358Z,24.36
2017-09-05T14:49:09.208Z,24.60
2017-09-05T14:51:36.075Z,24.73
2017-09-05T14:54:02.922Z,24.82
2017-09-05T14:56:29.766Z,25.20
2017-09-05T14:58:56.635Z,25.24
2017-09-05T15:01:23.491Z,25.30
2017-09-05T15:03:50.343Z,25.38
2017-09-05T15:06:17.203Z,25.44
2017-09-05T15:08:44.049Z,25.42
2017-09-05T15:11:10.910Z,25.36
2017-09-05T15:13:37.791Z,25.70
2017-09-05T15:16:04.663Z,25.39
2017-09-05T15:18:31.515Z,25.75
2017-09-05T15:20:58.386Z,25.65
2017-09-05T15:23:25.230Z,25.79
2017-09-05T15:25:52.062Z,25.77
2017-09-05T15:28:18.908Z,25.79
2017-09-05T15:30:45.785Z,25.66
2017-09-05T15:33:12.635Z,25.66
2017-09-05T15:35:39.478Z,25.45
2017-09-05T15:38:06.328Z,25.54
2017-09-05T15:40:33.190Z,25.50
2017-09-05T15:43:00.089Z,25.48
2017-09-05T15:45:26.945Z,25.49
2017-09-05T15:47:53.807Z,25.62
2017-09-05T15:50:20.650Z,25.47
2017-09-05T15:52:47.541Z,25.43
2017-09-05T15:55:14.472Z,25.47
2017-09-05T15:57:41.336Z,25.45
2017-09-05T16:00:08.210Z,25.30
2017-09-05T16:02:35.336Z,25.10
2017-09-05T16:05:02.218Z,25.28
2017-09-05T16:07:29.116Z,25.38
2017-09-05T16:09:55.982Z,25.18
2017-09-05T16:12:22.870Z,25.43
2017-09-05T16:14:49.721Z,25.52
2017-09-05T16:17:16.554Z,25.51
2017-09-05T16:19:43.399Z,25.44
2017-09-05T16:22:10.264Z,25.44
2017-09-05T16:24:37.122Z,25.35
2017-09-05T16:27:03.991Z,25.36
2017-09-05T16:29:31.111Z,25.28
2017-09-05T16:31:58.004Z,25.13
2017-09-05T16:34:24.885Z,25.24
2017-09-05T16:36:51.703Z,25.27
2017-09-05T16:39:18.547Z,25.03
2017-09-05T16:41:45.405Z,24.99
2017-09-05T16:44:12.257Z,24.92
2017-09-05T16:46:39.122Z,24.87
2017-09-05T16:49:05.992Z,24.78
2017-09-05T16:51:32.936Z,24.65
2017-09-05T16:53:59.851Z,24.72
2017-09-05T16:56:26.727Z,24.76
2017-09-05T16:58:53.574Z,24.70
2017-09-05T17:01:20.436Z,24.56
2017-09-05T17:03:47.311Z,24.54
2017-09-05T17:06:14.245Z,24.60
2017-09-05T17:08:41.115Z,24.59
2017-09-05T17:11:08.005Z,24.61
2017-09-05T17:13:34.836Z,24.59
2017-09-05T17:16:01.679Z,24.48
2017-09-05T17:18:28.534Z,24.33
2017-09-05T17:20:55.388Z,24.24
2017-09-05T17:23:22.200Z,24.21
2017-09-05T17:25:49.088Z,24.23
2017-09-05T17:28:15.969Z,24.18
2017-09-05T17:30:42.951Z,24.25
2017-09-05T17:33:09.800Z,24.17
2017-09-05T17:35:36.661Z,24.12
2017-09-05T17:38:03.609Z,24.05
2017-09-05T17:40:30.468Z,23.89
2017-09-05T17:42:57.292Z,23.92
2017-09-05T17:45:24.152Z,23.61
2017-09-05T17:47:51.038Z,23.75
2017-09-05T17:50:17.934Z,23.79
2017-09-05T17:52:44.898Z,23.53
2017-09-05T17:55:11.946Z,23.40
2017-09-05T17:57:38.843Z,23.58
2017-09-05T18:00:05.717Z,23.53
2017-09-05T18:02:32.995Z,23.46
2017-09-05T18:04:59.902Z,23.09
2017-09-05T18:07:27.277Z,23.11
2017-09-05T18:09:54.301Z,22.92
2017-09-05T18:12:21.364Z,23.02
2017-09-05T18:14:48.317Z,23.36
2017-09-05T18:17:15.804Z,22.85
2017-09-05T18:19:44.381Z,22.76
2017-09-05T18:22:11.322Z,23.11
2017-09-05T18:24:38.906Z,23.14
2017-09-05T18:27:05.876Z,23.36
2017-09-05T18:29:33.215Z,23.41
2017-09-05T18:32:00.462Z,23.10
2017-09-05T18:34:27.638Z,22.56
2017-09-05T18:36:56.014Z,23.08
2017-09-05T18:39:23.054Z,22.95
2017-09-05T18:41:49.918Z,22.18
2017-09-05T18:44:17.926Z,22.67
2017-09-05T18:46:45.457Z,22.70
2017-09-05T18:49:12.539Z,22.91
2017-09-05T18:51:41.163Z,22.54
2017-09-05T18:54:09.921Z,22.29
2017-09-05T18:56:38.660Z,21.68
2017-09-05T18:59:07.438Z,21.65
2017-09-05T19:01:36.381Z,22.36
2017-09-05T19:04:05.107Z,22.64
2017-09-05T19:06:33.509Z,22.14
2017-09-05T19:09:02.344Z,22.48
2017-09-05T19:11:30.982Z,22.25
2017-09-05T19:13:59.881Z,21.81
2017-09-05T19:16:28.827Z,22.05
2017-09-05T19:18:57.603Z,22.31
2017-09-05T19:21:26.482Z,22.42
2017-09-05T19:23:55.354Z,22.12
2017-09-05T19:26:23.912Z,22.02
2017-09-05T19:28:52.924Z,21.37
2017-09-05T19:31:21.767Z,21.38
2017-09-05T19:33:49.954Z,21.86
2017-09-05T19:36:18.247Z,21.75
2017-09-05T19:38:46.157Z,21.96
2017-09-05T19:41:15.515Z,22.14
2017-09-05T19:43:42.912Z,22.15
2017-09-05T19:46:11.447Z,22.16
2017-09-05T19:48:40.271Z,21.41
2017-09-05T19:51:08.974Z,21.51
2017-09-05T19:53:37.724Z,21.87
2017-09-05T19:56:06.352Z,21.67
2017-09-05T19:58:35.194Z,21.19
2017-09-05T20:01:04.920Z,21.32
2017-09-05T20:03:33.667Z,21.15
2017-09-05T20:06:02.560Z,21.30
2017-09-05T20:08:31.495Z,20.80
2017-09-05T20:10:58.878Z,21.31
2017-09-05T20:13:27.342Z,21.29
2017-09-05T20:15:55.084Z,21.45
2017-09-05T20:18:23.747Z,21.61
2017-09-05T20:20:51.689Z,21.30
2017-09-05T20:23:21.057Z,21.48
2017-09-05T20:25:49.796Z,21.62
2017-09-05T20:28:18.797Z,21.56
2017-09-05T20:30:47.624Z,21.47
2017-09-05T20:33:16.397Z,21.63
2017-09-05T20:35:45.062Z,21.77
2017-09-05T20:38:13.797Z,21.83
2017-09-05T20:40:41.420Z,21.79
2017-09-05T20:43:08.367Z,21.63
2017-09-05T20:45:36.061Z,21.16
2017-09-05T20:48:02.936Z,21.15
2017-09-05T20:50:29.998Z,21.45
2017-09-05T20:52:56.907Z,21.63
2017-09-05T20:55:23.751Z,21.49
2017-09-05T20:57:51.790Z,21.63
2017-09-05T21:00:19.118Z,21.66
2017-09-05T21:02:45.978Z,21.63
2017-09-05T21:05:12.829Z,21.75
2017-09-05T21:07:39.749Z,21.44
2017-09-05T21:10:06.679Z,21.61
2017-09-05T21:12:34.095Z,21.64
2017-09-05T21:15:01.026Z,21.10
2017-09-05T21:17:28.989Z,21.18
2017-09-05T21:19:56.260Z,21.42
2017-09-05T21:22:23.115Z,21.16
2017-09-05T21:24:51.300Z,21.36
2017-09-05T21:27:18.377Z,21.15
2017-09-05T21:29:45.292Z,21.48
2017-09-05T21:32:12.692Z,21.13
2017-09-05T21:34:39.521Z,21.22
2017-09-05T21:37:06.370Z,21.41
2017-09-05T21:39:33.159Z,21.50
2017-09-05T21:42:00.026Z,21.26
2017-09-05T21:44:26.932Z,21.40
2017-09-05T21:46:53.902Z,21.34
2017-09-05T21:49:20.746Z,21.52
2017-09-05T21:51:47.623Z,21.59
2017-09-05T21:54:14.442Z,21.50
2017-09-05T21:56:41.304Z,21.26
2017-09-05T21:59:08.178Z,21.28
2017-09-05T22:01:35.001Z,21.48
2017-09-05T22:04:01.860Z,21.36
2017-09-05T22:06:28.699Z,21.28
2017-09-05T22:08:55.606Z,21.07
2017-09-05T22:11:22.431Z,21.19
2017-09-05T22:13:55.425Z,21.11
2017-09-05T22:16:28.329Z,20.97
2017-09-05T22:19:01.136Z,21.23
2017-09-05T22:21:28.055Z,21.20
2017-09-05T22:23:54.896Z,21.12
2017-09-05T22:26:27.702Z,21.02
2017-09-05T22:29:00.686Z,21.06
2017-09-05T22:31:27.527Z,21.28
2017-09-05T22:33:54.351Z,21.02
2017-09-05T22:36:21.191Z,20.82
2017-09-05T22:38:48.068Z,20.98
2017-09-05T22:41:14.869Z,20.78
2017-09-05T22:43:41.683Z,21.00
2017-09-05T22:46:08.522Z,20.66
2017-09-05T22:48:35.336Z,21.05
2017-09-05T22:51:02.175Z,21.02
2017-09-05T22:53:29.012Z,20.63
2017-09-05T22:55:55.844Z,20.89
2017-09-05T22:58:22.666Z,20.81
2017-09-05T23:00:49.552Z,20.63
2017-09-05T23:03:16.394Z,20.68
2017-09-05T23:05:43.259Z,20.89
2017-09-05T23:08:10.893Z,20.47
2017-09-05T23:10:37.767Z,20.59
2017-09-05T23:13:04.689Z,20.68
2017-09-05T23:15:31.488Z,20.76
2017-09-05T23:17:58.345Z,20.50
2017-09-05T23:20:25.167Z,20.74
2017-09-05T23:22:51.990Z,20.74
2017-09-05T23:25:18.781Z,20.59
2017-09-05T23:27:45.631Z,20.58
2017-09-05T23:30:12.439Z,20.59
2017-09-05T23:32:39.253Z,20.75
2017-09-05T23:35:06.077Z,20.27
2017-09-05T23:37:32.916Z,20.27
2017-09-05T23:39:59.760Z,20.66
2017-09-05T23:42:26.640Z,20.57
2017-09-05T23:44:53.456Z,20.57
2017-09-05T23:47:20.273Z,20.36
2017-09-05T23:49:47.239Z,20.59
2017-09-05T23:52:14.063Z,20.33
2017-09-05T23:54:41.005Z,20.22
2017-09-05T23:57:07.842Z,20.39
2017-09-05T23:59:34.669Z,20.36
